Time;durP1;ratioP1;P1;durP2;ratioP2;P2;SDS_P1;SDS_P2;PMS_P1;PMS_P2;Temp;Humidity;BMP_temperature;BMP_pressure;BME280_temperature;BME280_humidity;BME280_pressure;Samples;Min_cycle;Max_cycle;Signal;HPM_P1;HPM_P2
2022/11/23 00:01:27;;;;;;;20.70;13.10;;;0.50;99.90;;;;;;5023264;28;20221;-66
2022/11/23 00:03:55;;;;;;;23.20;13.60;;;0.50;99.90;;;;;;5018625;28;20198;-66
2022/11/23 00:06:23;;;;;;;23.43;13.30;;;0.60;99.90;;;;;;5033898;28;20202;-67
2022/11/23 00:08:51;;;;;;;25.73;14.27;;;0.60;99.90;;;;;;5022842;28;20205;-65
2022/11/23 00:11:18;;;;;;;22.87;12.57;;;0.60;99.90;;;;;;5013878;28;20229;-65
2022/11/23 00:13:46;;;;;;;21.67;13.17;;;0.60;99.90;;;;;;5013696;28;20234;-66
2022/11/23 00:16:14;;;;;;;24.03;13.97;;;0.70;99.90;;;;;;5013989;28;20659;-66
2022/11/23 00:18:43;;;;;;;21.87;13.27;;;0.70;99.90;;;;;;5014088;28;20210;-64
2022/11/23 00:21:11;;;;;;;23.87;14.33;;;0.70;99.90;;;;;;5025160;28;20202;-65
2022/11/23 00:23:38;;;;;;;24.97;14.80;;;0.70;99.90;;;;;;5033377;28;20202;-66
2022/11/23 00:26:06;;;;;;;25.23;14.40;;;0.70;99.90;;;;;;5033306;28;20245;-66
2022/11/23 00:28:33;;;;;;;26.73;14.73;;;0.70;99.90;;;;;;5033577;28;20210;-64
2022/11/23 00:31:00;;;;;;;27.57;15.03;;;0.70;99.90;;;;;;5033336;28;20217;-66
2022/11/23 00:33:27;;;;;;;26.70;15.47;;;0.70;99.90;;;;;;5032948;28;20237;-66
2022/11/23 00:36:02;;;;;;;27.07;14.73;;;0.80;99.90;;;;;;5033544;28;20216;-65
2022/11/23 00:38:30;;;;;;;25.80;15.37;;;0.80;99.90;;;;;;5032538;28;20209;-64
2022/11/23 00:41:00;;;;;;;26.33;14.37;;;0.80;99.90;;;;;;5033333;28;20206;-65
2022/11/23 00:43:28;;;;;;;27.57;15.30;;;0.80;99.90;;;;;;5032806;28;20213;-65
2022/11/23 00:46:08;;;;;;;29.47;15.13;;;0.80;99.90;;;;;;5038297;28;20201;-66
2022/11/23 00:48:35;;;;;;;30.43;15.63;;;0.80;99.90;;;;;;5053132;28;20665;-66
2022/11/23 00:51:06;;;;;;;27.63;15.63;;;0.80;99.90;;;;;;5052705;28;20691;-65
2022/11/23 00:53:34;;;;;;;26.97;14.30;;;0.80;99.90;;;;;;5053098;28;20573;-66
2022/11/23 00:56:01;;;;;;;26.40;14.53;;;0.80;99.90;;;;;;5031609;28;20217;-66
2022/11/23 00:58:27;;;;;;;26.63;14.90;;;0.80;99.90;;;;;;5031688;28;20633;-65
2022/11/23 01:01:06;;;;;;;29.43;15.33;;;0.80;99.90;;;;;;5033069;28;20202;-65
2022/11/23 01:03:34;;;;;;;25.70;14.43;;;0.80;99.90;;;;;;5033079;28;20187;-66
2022/11/23 01:06:07;;;;;;;25.13;15.17;;;0.80;99.90;;;;;;5031221;28;21091;-65
2022/11/23 01:08:34;;;;;;;27.13;14.73;;;0.80;99.90;;;;;;5019754;28;20535;-66
2022/11/23 01:11:02;;;;;;;27.10;15.53;;;0.80;99.90;;;;;;5032515;28;20222;-65
2022/11/23 01:13:30;;;;;;;26.70;15.40;;;0.80;99.90;;;;;;5031687;28;20842;-65
2022/11/23 01:15:57;;;;;;;26.77;15.60;;;0.80;99.90;;;;;;5017825;28;20660;-66
2022/11/23 01:18:24;;;;;;;26.70;15.60;;;0.80;99.90;;;;;;5012954;28;20207;-65
2022/11/23 01:20:51;;;;;;;29.83;16.33;;;0.80;99.90;;;;;;5013042;28;20213;-66
2022/11/23 01:23:19;;;;;;;29.17;16.93;;;0.80;99.90;;;;;;5012818;28;20199;-66
2022/11/23 01:25:46;;;;;;;26.87;15.97;;;0.80;99.90;;;;;;5021077;28;20681;-64
2022/11/23 01:28:13;;;;;;;30.60;16.37;;;0.80;99.90;;;;;;5032402;28;20655;-66
2022/11/23 01:30:40;;;;;;;28.10;16.33;;;0.80;99.90;;;;;;5032660;28;20658;-66
2022/11/23 01:33:07;;;;;;;27.17;15.30;;;0.80;99.90;;;;;;5031955;28;20275;-65
2022/11/23 01:35:33;;;;;;;32.23;16.53;;;0.80;99.90;;;;;;5032284;28;20206;-65
2022/11/23 01:38:00;;;;;;;30.30;16.97;;;0.80;99.90;;;;;;5032054;28;20208;-66
2022/11/23 01:40:28;;;;;;;29.83;16.77;;;0.80;99.90;;;;;;5031117;28;20202;-66
2022/11/23 01:42:57;;;;;;;32.77;17.17;;;0.70;99.90;;;;;;5031855;28;20203;-64
2022/11/23 01:45:37;;;;;;;31.80;17.20;;;0.70;99.90;;;;;;5032323;28;20205;-67
2022/11/23 01:48:09;;;;;;;31.43;18.13;;;0.70;99.90;;;;;;5032084;28;20200;-65
2022/11/23 01:50:37;;;;;;;34.37;17.80;;;0.70;99.90;;;;;;5032108;28;20248;-66
2022/11/23 01:53:04;;;;;;;35.70;17.70;;;0.70;99.90;;;;;;5031912;28;20288;-67
2022/11/23 01:55:34;;;;;;;32.77;18.07;;;0.80;99.90;;;;;;5028998;28;20215;-65
2022/11/23 01:58:01;;;;;;;34.63;17.57;;;0.70;99.90;;;;;;5016746;28;20213;-65
2022/11/23 02:00:28;;;;;;;34.17;18.10;;;0.70;99.90;;;;;;5012028;28;20207;-66
2022/11/23 02:02:58;;;;;;;33.23;18.13;;;0.80;99.90;;;;;;5012141;28;20203;-64
2022/11/23 02:05:31;;;;;;;33.77;17.90;;;0.80;99.90;;;;;;5012155;28;20195;-66
2022/11/23 02:08:00;;;;;;;33.53;18.33;;;0.80;99.90;;;;;;5011810;28;20195;-64
2022/11/23 02:10:27;;;;;;;35.43;19.47;;;0.80;99.90;;;;;;5011830;28;20207;-65
2022/11/23 02:12:55;;;;;;;33.00;17.50;;;0.80;99.90;;;;;;5011955;28;20215;-65
2022/11/23 02:15:22;;;;;;;33.50;17.47;;;0.70;99.90;;;;;;5012198;28;20537;-66
2022/11/23 02:17:49;;;;;;;36.13;18.90;;;0.80;99.90;;;;;;5024568;28;20206;-66
2022/11/23 02:20:18;;;;;;;40.07;19.17;;;0.80;99.90;;;;;;5031659;28;20217;-65
2022/11/23 02:22:52;;;;;;;41.10;19.80;;;0.80;99.90;;;;;;5031504;28;20566;-66
2022/11/23 02:25:38;;;;;;;42.17;19.93;;;0.80;99.90;;;;;;5031856;28;20194;-66
2022/11/23 02:28:07;;;;;;;42.87;20.73;;;0.80;99.90;;;;;;5030577;28;20566;-66
2022/11/23 02:30:36;;;;;;;36.33;19.23;;;0.80;99.90;;;;;;5031707;28;20202;-66
2022/11/23 02:33:04;;;;;;;44.00;19.90;;;0.70;99.90;;;;;;5031088;28;20233;-65
2022/11/23 02:35:31;;;;;;;41.70;20.37;;;0.70;99.90;;;;;;5031766;28;20620;-64
2022/11/23 02:37:58;;;;;;;42.60;19.93;;;0.70;99.90;;;;;;5031396;28;20570;-65
2022/11/23 02:40:28;;;;;;;44.87;20.70;;;0.80;99.90;;;;;;5019103;28;20226;-66
2022/11/23 02:42:55;;;;;;;40.00;20.40;;;0.80;99.90;;;;;;5011975;28;20643;-65
2022/11/23 02:45:31;;;;;;;42.20;19.83;;;0.80;99.90;;;;;;5011905;28;20225;-65
2022/11/23 02:47:58;;;;;;;44.60;20.90;;;0.80;99.90;;;;;;5011378;28;20195;-67
2022/11/23 02:50:25;;;;;;;40.10;19.83;;;0.80;99.90;;;;;;5011686;28;20563;-65
2022/11/23 02:52:52;;;;;;;43.63;20.57;;;0.80;99.90;;;;;;5011548;28;20225;-66
2022/11/23 02:55:18;;;;;;;43.07;21.13;;;0.80;99.90;;;;;;5024742;28;20213;-65
2022/11/23 02:57:45;;;;;;;45.87;20.90;;;0.90;99.90;;;;;;5030863;28;20218;-65
2022/11/23 03:00:13;;;;;;;44.30;20.53;;;0.90;99.90;;;;;;5031493;28;20202;-65
2022/11/23 03:02:41;;;;;;;42.53;21.20;;;0.90;99.90;;;;;;5031314;28;20278;-66
2022/11/23 03:05:09;;;;;;;45.17;20.33;;;0.90;99.90;;;;;;5031021;28;20203;-66
2022/11/23 03:07:36;;;;;;;48.77;21.77;;;0.90;99.90;;;;;;5031187;28;20245;-65
2022/11/23 03:10:04;;;;;;;44.37;20.73;;;0.90;99.90;;;;;;5019210;28;20214;-65
2022/11/23 03:12:30;;;;;;;49.07;20.67;;;0.90;99.90;;;;;;5011430;28;20207;-66
2022/11/23 03:14:57;;;;;;;44.83;20.33;;;0.90;99.90;;;;;;5011358;28;20230;-64
2022/11/23 03:17:24;;;;;;;42.77;20.83;;;0.90;99.90;;;;;;5011434;28;20225;-66
2022/11/23 03:19:52;;;;;;;36.17;18.20;;;0.90;99.90;;;;;;5014862;28;20207;-65
2022/11/23 03:22:19;;;;;;;37.57;18.50;;;0.90;99.90;;;;;;5015191;28;20207;-66
2022/11/23 03:24:45;;;;;;;39.87;19.37;;;0.90;99.90;;;;;;5014676;28;20199;-66
2022/11/23 03:27:12;;;;;;;42.70;19.07;;;0.90;99.90;;;;;;5014969;28;20203;-65
2022/11/23 03:29:39;;;;;;;41.67;19.57;;;0.90;99.90;;;;;;5031857;28;20569;-65
2022/11/23 03:32:06;;;;;;;42.73;20.30;;;0.80;99.90;;;;;;5034155;28;20242;-66
2022/11/23 03:34:33;;;;;;;37.63;19.17;;;0.90;99.90;;;;;;5034081;28;20230;-66
2022/11/23 03:37:01;;;;;;;40.67;18.83;;;0.90;99.90;;;;;;5033916;28;20221;-65
2022/11/23 03:39:28;;;;;;;34.87;18.27;;;0.90;99.90;;;;;;5034576;28;20210;-65
2022/11/23 03:41:55;;;;;;;39.03;19.13;;;0.90;99.90;;;;;;5034132;28;20202;-66
2022/11/23 03:44:22;;;;;;;41.63;21.20;;;0.90;99.90;;;;;;5033276;28;20568;-65
2022/11/23 03:46:49;;;;;;;33.60;17.37;;;0.90;99.90;;;;;;5033727;28;20214;-65
2022/11/23 03:49:16;;;;;;;34.23;16.87;;;0.90;99.90;;;;;;5033939;28;20214;-65
2022/11/23 03:51:43;;;;;;;33.43;16.47;;;0.80;99.90;;;;;;5033647;28;20206;-66
2022/11/23 03:54:11;;;;;;;36.20;17.27;;;0.80;99.90;;;;;;5033817;28;20222;-65
2022/11/23 03:56:38;;;;;;;31.57;16.37;;;0.80;99.90;;;;;;5033811;28;20216;-66
2022/11/23 03:59:05;;;;;;;33.33;16.43;;;0.80;99.90;;;;;;5032673;28;20202;-65
2022/11/23 04:01:31;;;;;;;29.57;15.70;;;0.80;99.90;;;;;;5033863;28;20206;-66
2022/11/23 04:03:58;;;;;;;31.40;16.67;;;0.80;99.90;;;;;;5033552;28;20206;-65
2022/11/23 04:06:25;;;;;;;35.23;16.60;;;0.80;99.90;;;;;;5033837;28;20209;-65
2022/11/23 04:08:52;;;;;;;30.10;16.03;;;0.80;99.90;;;;;;5031488;28;20202;-65
2022/11/23 04:11:20;;;;;;;33.53;16.70;;;0.70;99.90;;;;;;5030906;28;20218;-65
2022/11/23 04:13:47;;;;;;;33.13;15.67;;;0.70;99.90;;;;;;5025407;28;20225;-66
2022/11/23 04:16:14;;;;;;;29.63;15.90;;;0.70;99.90;;;;;;5013729;28;20207;-66
2022/11/23 04:18:40;;;;;;;32.20;16.17;;;0.70;99.90;;;;;;5013618;28;20207;-66
2022/11/23 04:21:07;;;;;;;29.53;15.27;;;0.70;99.90;;;;;;5013573;28;20207;-65
2022/11/23 04:23:34;;;;;;;33.70;16.43;;;0.70;99.90;;;;;;5013422;28;20555;-64
2022/11/23 04:26:01;;;;;;;30.57;15.83;;;0.70;99.90;;;;;;5013594;28;20710;-65
2022/11/23 04:28:29;;;;;;;29.37;14.33;;;0.70;99.90;;;;;;5024272;28;20676;-65
2022/11/23 04:30:57;;;;;;;29.47;15.03;;;0.70;99.90;;;;;;5018281;28;20675;-65
2022/11/23 04:33:24;;;;;;;24.53;14.10;;;0.70;99.90;;;;;;5032892;28;20248;-66
2022/11/23 04:35:51;;;;;;;30.77;16.17;;;0.70;99.90;;;;;;5033122;28;20217;-66
2022/11/23 04:38:18;;;;;;;29.20;16.30;;;0.70;99.90;;;;;;5033097;28;20682;-65
2022/11/23 04:40:47;;;;;;;33.70;17.97;;;0.70;99.90;;;;;;5032990;28;20537;-65
2022/11/23 04:43:13;;;;;;;35.13;18.90;;;0.70;99.90;;;;;;5032808;28;20233;-64
2022/11/23 04:45:42;;;;;;;34.50;17.63;;;0.70;99.90;;;;;;5031532;28;20206;-66
2022/11/23 04:48:08;;;;;;;30.50;16.93;;;0.70;99.90;;;;;;5032857;28;20210;-65
2022/11/23 04:50:36;;;;;;;29.97;17.07;;;0.70;99.90;;;;;;5032301;28;20213;-65
2022/11/23 04:53:04;;;;;;;29.47;16.07;;;0.70;99.90;;;;;;5032899;28;20210;-66
2022/11/23 04:55:31;;;;;;;26.07;14.83;;;0.70;99.90;;;;;;5032325;28;20226;-65
2022/11/23 04:57:57;;;;;;;24.83;14.40;;;0.70;99.90;;;;;;5032886;28;20202;-66
2022/11/23 05:00:24;;;;;;;23.23;14.30;;;0.70;99.90;;;;;;5031254;28;20206;-67
2022/11/23 05:02:53;;;;;;;22.60;13.03;;;0.70;99.90;;;;;;5032491;28;20202;-66
2022/11/23 05:05:19;;;;;;;23.00;13.20;;;0.70;99.90;;;;;;5032450;28;20202;-65
2022/11/23 05:07:46;;;;;;;23.30;12.77;;;0.70;99.90;;;;;;5032630;28;20209;-66
2022/11/23 05:10:13;;;;;;;27.13;13.50;;;0.70;99.90;;;;;;5032558;28;20202;-65
2022/11/23 05:12:40;;;;;;;22.40;12.50;;;0.60;99.90;;;;;;5032227;28;20202;-66
2022/11/23 05:15:07;;;;;;;23.47;14.03;;;0.60;99.90;;;;;;5031034;28;20225;-66
2022/11/23 05:17:34;;;;;;;21.77;12.63;;;0.60;99.90;;;;;;5032370;28;20293;-65
2022/11/23 05:20:03;;;;;;;25.07;14.33;;;0.60;99.90;;;;;;5032200;28;20217;-66
2022/11/23 05:22:29;;;;;;;25.90;14.60;;;0.70;99.90;;;;;;5032061;28;20670;-67
2022/11/23 05:24:56;;;;;;;27.37;12.97;;;0.60;99.90;;;;;;5031080;28;20672;-65
2022/11/23 05:27:23;;;;;;;21.53;12.37;;;0.60;99.90;;;;;;5032268;28;20224;-67
2022/11/23 05:29:50;;;;;;;21.43;12.57;;;0.50;99.90;;;;;;5032377;28;20554;-65
2022/11/23 05:32:17;;;;;;;21.60;12.77;;;0.50;99.90;;;;;;5031860;28;20229;-66
2022/11/23 05:34:44;;;;;;;21.13;12.27;;;0.50;99.90;;;;;;5030643;28;20234;-65
2022/11/23 05:37:12;;;;;;;23.40;13.37;;;0.60;99.90;;;;;;5031920;28;20206;-66
2022/11/23 05:39:38;;;;;;;22.93;12.50;;;0.60;99.90;;;;;;5032013;28;20547;-66
2022/11/23 05:42:05;;;;;;;23.60;13.17;;;0.60;99.90;;;;;;5031759;28;20202;-65
2022/11/23 05:44:32;;;;;;;21.83;12.77;;;0.60;99.90;;;;;;5031766;28;20224;-65
2022/11/23 05:46:59;;;;;;;20.93;12.43;;;0.60;99.90;;;;;;5032154;28;20209;-66
2022/11/23 05:49:26;;;;;;;20.23;11.90;;;0.70;99.90;;;;;;5030673;28;20206;-66
2022/11/23 05:51:52;;;;;;;20.00;12.37;;;0.70;99.90;;;;;;5032010;28;20234;-65
2022/11/23 05:54:21;;;;;;;23.63;13.30;;;0.70;99.90;;;;;;5032002;28;20236;-66
2022/11/23 08:29:19;;;;;;;19.13;11.63;;;-0.30;99.90;;;;;;5108710;27;20556;-64
2022/11/23 08:31:46;;;;;;;18.67;11.27;;;0.50;99.90;;;;;;5109260;28;20209;-63
2022/11/23 08:34:13;;;;;;;20.13;13.00;;;0.50;99.90;;;;;;5108486;28;20191;-63
2022/11/23 08:36:40;;;;;;;22.00;12.90;;;0.60;99.90;;;;;;5108715;28;20641;-63
2022/11/23 08:39:09;;;;;;;22.57;13.70;;;0.70;99.90;;;;;;5108831;28;20203;-63
2022/11/23 08:41:36;;;;;;;20.77;12.57;;;0.70;99.90;;;;;;5109108;28;20317;-64
2022/11/23 08:44:03;;;;;;;20.30;12.47;;;0.70;99.90;;;;;;5108075;28;20275;-67
2022/11/23 08:46:31;;;;;;;20.43;12.27;;;0.80;99.90;;;;;;5108999;28;20203;-64
2022/11/23 08:48:58;;;;;;;22.37;13.50;;;0.80;99.90;;;;;;5108975;28;20199;-63
2022/11/23 08:51:25;;;;;;;21.67;12.73;;;0.80;99.90;;;;;;5109036;28;20309;-63
2022/11/23 08:53:52;;;;;;;23.43;13.77;;;0.80;99.90;;;;;;5108495;28;20202;-63
2022/11/23 08:56:19;;;;;;;25.27;13.77;;;0.80;99.90;;;;;;5088735;28;20204;-64
2022/11/23 08:58:46;;;;;;;25.77;13.97;;;0.80;99.90;;;;;;5088302;28;20221;-63
2022/11/23 09:01:15;;;;;;;23.60;12.83;;;0.80;99.90;;;;;;5088575;28;20206;-65
2022/11/23 09:03:44;;;;;;;26.80;14.20;;;0.80;99.90;;;;;;5105143;28;20195;-64
2022/11/23 09:06:11;;;;;;;21.27;13.07;;;0.80;99.90;;;;;;5110125;28;20199;-64
2022/11/23 09:08:39;;;;;;;22.30;12.07;;;0.80;99.90;;;;;;5108513;28;20207;-64
2022/11/23 09:11:07;;;;;;;22.77;13.30;;;0.80;99.90;;;;;;5107713;28;20200;-64
2022/11/23 09:13:36;;;;;;;24.50;13.80;;;0.90;99.90;;;;;;5108392;28;20261;-63
2022/11/23 09:16:04;;;;;;;22.87;12.83;;;0.90;99.90;;;;;;5107984;28;20203;-63
2022/11/23 09:18:32;;;;;;;21.20;13.23;;;1.00;99.90;;;;;;5108582;28;20339;-64
2022/11/23 09:21:03;;;;;;;20.07;12.67;;;1.00;99.90;;;;;;5107671;28;20229;-64
2022/11/23 09:23:30;;;;;;;23.07;13.20;;;1.00;99.90;;;;;;5108137;28;20191;-66
2022/11/23 09:25:58;;;;;;;23.97;13.77;;;1.00;99.90;;;;;;5102245;28;20254;-65
2022/11/23 09:28:26;;;;;;;23.57;13.70;;;1.00;99.90;;;;;;5094778;28;20231;-63
2022/11/23 09:30:54;;;;;;;26.13;14.03;;;1.00;99.90;;;;;;5093918;28;20204;-65
2022/11/23 09:33:21;;;;;;;24.80;13.20;;;1.00;99.90;;;;;;5093936;28;20311;-65
2022/11/23 09:35:48;;;;;;;23.10;13.23;;;1.00;99.90;;;;;;5094265;28;20294;-63
2022/11/23 09:38:16;;;;;;;26.13;14.63;;;1.00;99.90;;;;;;5094545;28;20207;-64
2022/11/23 09:40:43;;;;;;;28.60;14.77;;;1.00;99.90;;;;;;5094435;28;20207;-63
2022/11/23 09:43:31;;;;;;;30.03;14.87;;;1.00;99.90;;;;;;5093575;28;20223;-64
2022/11/23 09:46:08;;;;;;;28.07;14.63;;;1.00;99.90;;;;;;5094307;28;20222;-64
2022/11/23 09:48:52;;;;;;;28.50;15.30;;;1.00;99.90;;;;;;5094605;28;20192;-64
2022/11/23 09:51:21;;;;;;;29.93;15.97;;;0.90;99.90;;;;;;5094176;28;20198;-65
2022/11/23 09:53:53;;;;;;;33.27;17.40;;;0.90;99.90;;;;;;5088546;28;20654;-64
2022/11/23 09:56:23;;;;;;;28.40;15.57;;;0.90;99.90;;;;;;5092324;28;20570;-64
2022/11/23 09:58:54;;;;;;;27.77;15.77;;;0.90;99.90;;;;;;5101465;28;20226;-64
2022/11/23 10:01:21;;;;;;;24.63;14.30;;;0.80;99.90;;;;;;5092822;28;20206;-64
2022/11/23 10:03:48;;;;;;;25.00;13.60;;;0.80;99.90;;;;;;5089825;28;20215;-63
2022/11/23 10:06:18;;;;;;;24.70;14.10;;;0.90;99.90;;;;;;5092512;28;20226;-63
2022/11/23 10:09:01;;;;;;;23.33;13.87;;;0.90;99.90;;;;;;5082215;28;20197;-65
2022/11/23 10:11:41;;;;;;;25.93;14.33;;;0.90;99.90;;;;;;5073945;28;20203;-63
2022/11/23 10:14:22;;;;;;;27.10;15.27;;;0.90;99.90;;;;;;5093984;28;20196;-64
2022/11/23 10:16:56;;;;;;;27.50;15.90;;;0.90;99.90;;;;;;5093471;28;20613;-64
2022/11/23 10:19:32;;;;;;;30.60;16.83;;;0.90;99.90;;;;;;5093926;28;20597;-63
2022/11/23 10:22:09;;;;;;;32.37;16.00;;;0.90;99.90;;;;;;5093065;28;20226;-65
2022/11/23 10:24:42;;;;;;;27.07;15.10;;;0.90;99.90;;;;;;5093083;28;20222;-65
2022/11/23 10:27:15;;;;;;;28.23;16.20;;;0.90;99.90;;;;;;5093166;28;20195;-65
2022/11/23 10:29:43;;;;;;;31.67;16.67;;;1.00;99.90;;;;;;5088926;28;20280;-66
2022/11/23 10:32:21;;;;;;;31.40;17.40;;;1.00;99.90;;;;;;5072931;28;20268;-65
2022/11/23 10:34:56;;;;;;;30.77;17.07;;;1.00;99.90;;;;;;5083014;28;20210;-64
2022/11/23 10:37:23;;;;;;;33.20;17.93;;;1.10;99.90;;;;;;5071804;28;20220;-64
2022/11/23 10:39:51;;;;;;;33.33;18.53;;;1.10;99.90;;;;;;5078242;28;20196;-66
2022/11/23 10:42:24;;;;;;;38.83;19.90;;;1.10;99.90;;;;;;5095587;28;20218;-66
2022/11/23 10:44:54;;;;;;;35.43;19.03;;;1.10;99.90;;;;;;5092748;28;20239;-64
2022/11/23 10:47:36;;;;;;;37.80;19.97;;;1.10;99.90;;;;;;5093068;28;20208;-66
2022/11/23 10:50:19;;;;;;;36.17;19.67;;;1.20;99.90;;;;;;5080637;28;20204;-65
2022/11/23 10:52:51;;;;;;;38.07;20.03;;;1.20;99.90;;;;;;5091637;28;20652;-64
2022/11/23 10:55:24;;;;;;;36.50;19.60;;;1.20;99.90;;;;;;5092139;28;20193;-64
2022/11/23 10:57:51;;;;;;;37.53;20.30;;;1.20;99.90;;;;;;5092733;28;20192;-63
2022/11/23 11:00:19;;;;;;;38.17;20.63;;;1.20;99.90;;;;;;5080959;28;20213;-64
2022/11/23 11:02:48;;;;;;;36.50;19.70;;;1.20;99.90;;;;;;5071966;28;20208;-64
2022/11/23 11:05:26;;;;;;;38.03;19.83;;;1.20;99.90;;;;;;5071999;28;20223;-64
2022/11/23 11:07:53;;;;;;;38.77;20.17;;;1.20;99.90;;;;;;5081966;28;20561;-64
2022/11/23 11:10:37;;;;;;;34.00;19.10;;;1.20;99.90;;;;;;5092591;28;20214;-64
2022/11/23 11:13:20;;;;;;;37.30;19.90;;;1.10;99.90;;;;;;5092480;28;20198;-63
2022/11/23 11:15:52;;;;;;;38.00;19.73;;;1.10;99.90;;;;;;5092177;28;20659;-65
2022/11/23 11:18:19;;;;;;;35.03;19.17;;;1.20;99.90;;;;;;5092145;28;20238;-64
2022/11/23 11:20:46;;;;;;;32.67;18.30;;;1.20;99.90;;;;;;5092242;28;20208;-64
2022/11/23 11:23:18;;;;;;;33.50;18.47;;;1.20;99.90;;;;;;5092339;28;20569;-63
2022/11/23 11:25:47;;;;;;;35.20;19.30;;;1.20;99.90;;;;;;5091581;28;20222;-64
2022/11/23 11:28:27;;;;;;;35.63;20.27;;;1.20;99.90;;;;;;5091993;28;20228;-63
2022/11/23 11:31:08;;;;;;;39.63;20.93;;;1.30;99.90;;;;;;5092133;28;20188;-64
2022/11/23 11:33:40;;;;;;;37.03;20.40;;;1.20;99.90;;;;;;5091503;28;20745;-64
2022/11/23 11:36:10;;;;;;;37.60;21.00;;;1.20;99.90;;;;;;5091212;28;20203;-65
2022/11/23 11:38:38;;;;;;;37.80;21.20;;;1.20;99.90;;;;;;5091105;28;20287;-63
2022/11/23 11:41:10;;;;;;;41.63;22.30;;;1.20;99.90;;;;;;5079314;28;20304;-65
2022/11/23 11:43:40;;;;;;;46.93;23.87;;;1.20;99.90;;;;;;5090110;28;20218;-64
2022/11/23 11:46:13;;;;;;;39.77;21.80;;;1.20;99.90;;;;;;5091533;28;20280;-65
2022/11/23 11:48:44;;;;;;;40.87;21.97;;;1.30;99.90;;;;;;5089768;28;20199;-67
2022/11/23 11:51:18;;;;;;;42.60;23.10;;;1.30;99.90;;;;;;5091617;28;20192;-64
2022/11/23 11:53:54;;;;;;;39.37;21.97;;;1.30;99.90;;;;;;5091521;28;20192;-66
2022/11/23 11:56:29;;;;;;;42.40;24.40;;;1.30;99.90;;;;;;5091651;28;20191;-65
2022/11/23 11:59:01;;;;;;;45.80;25.87;;;1.30;99.90;;;;;;5089889;28;20196;-65
2022/11/23 12:01:35;;;;;;;52.73;28.43;;;1.30;99.90;;;;;;5087123;28;20671;-64
2022/11/23 12:04:06;;;;;;;45.43;26.43;;;1.20;99.90;;;;;;5086110;28;20207;-65
2022/11/23 12:06:39;;;;;;;56.33;29.53;;;1.20;99.90;;;;;;5091591;28;20242;-63
2022/11/23 12:09:11;;;;;;;55.43;28.43;;;1.20;99.90;;;;;;5081546;28;20193;-65
